Погода Смодайнына 2 недели

Варминско-Мазурское воеводство, Польша

17 - 30 июля
  • 17июля
    Сегодня
    +15°
    +28°
    Ясно и безоблачно
    ВремяПогодаТемператураВлажностьДавлениеВетер, м/сВероятность осадков
    02:00Практически безоблачно+20°C90 %749 мм2.5 м/с8 %
    05:00Ясно и безоблачно+19°C95 %750 мм2.5 м/с2 %
    08:00Ясно и безоблачно+23°C83 %752 мм3.3 м/с2 %
    11:00Ясно и безоблачно+27°C56 %752 мм4.8 м/с2 %
    14:00Ясно и безоблачно+27°C46 %752 мм5.2 м/с2 %
    17:00Облачно с прояснениями+27°C44 %753 мм4.7 м/с2 %
    20:00Ясно и безоблачно+24°C58 %753 мм2.4 м/с2 %
    23:00Практически безоблачно+19°C76 %754 мм1.9 м/с2 %
  • 18июля
    Четверг
    +13°
    +25°
    Облачно с прояснениями
    ВремяПогодаТемператураВлажностьДавлениеВетер, м/сВероятность осадков
    02:00Ясно и безоблачно+17°C86 %754 мм1.5 м/с2 %
    05:00Облачно с прояснениями+16°C87 %754 мм2.1 м/с2 %
    08:00Ясно и безоблачно+20°C71 %755 мм2.8 м/с2 %
    11:00Практически безоблачно+23°C58 %755 мм4.9 м/с28 %
    14:00Облачно с прояснениями+24°C52 %755 мм5.0 м/с17 %
    17:00Облачно с прояснениями+24°C55 %755 мм4.6 м/с13 %
    20:00Ясно и безоблачно+21°C71 %756 мм3.1 м/с2 %
    23:00Практически безоблачно+16°C92 %756 мм1.8 м/с2 %
  • 19июля
    Пятница
    +12°
    +24°
    Облачно с прояснениями
    ВремяПогодаТемператураВлажностьДавлениеВетер, м/сВероятность осадков
    02:00Облачно с прояснениями+14°C93 %756 мм1.5 м/с2 %
    05:00Ясно и безоблачно+14°C89 %756 мм2.1 м/с2 %
    08:00Ясно и безоблачно+18°C77 %756 мм3.1 м/с2 %
    11:00Небольшая облачность+22°C56 %756 мм4.4 м/с2 %
    14:00Облачно с прояснениями+23°C48 %755 мм4.4 м/с2 %
    17:00Практически безоблачно+24°C46 %754 мм4.0 м/с2 %
    20:00Ясно и безоблачно+21°C65 %754 мм2.6 м/с2 %
    23:00Ясно и безоблачно+15°C84 %753 мм1.9 м/с2 %
  • 20июля
    Суббота
    +12°
    +25°
    Ясно и безоблачно
    ВремяПогодаТемператураВлажностьДавлениеВетер, м/сВероятность осадков
    02:00Облачно с прояснениями+13°C92 %753 мм1.0 м/с2 %
    05:00Практически безоблачно+12°C96 %752 мм1.4 м/с2 %
    08:00Ясно и безоблачно+17°C77 %751 мм1.8 м/с2 %
    11:00Ясно и безоблачно+22°C58 %751 мм3.0 м/с2 %
    14:00Ясно и безоблачно+25°C48 %750 мм2.8 м/с14 %
    17:00Небольшая облачность+25°C48 %749 мм3.1 м/с15 %
    20:00Ясно и безоблачно+23°C61 %749 мм2.5 м/с5 %
    23:00Ясно и безоблачно+17°C85 %749 мм1.6 м/с2 %
  • 21июля
    Воскресенье
    +13°
    +26°
    Ясно и безоблачно
    ВремяПогодаТемператураВлажностьДавлениеВетер, м/сВероятность осадков
    02:00Ясно и безоблачно+14°C95 %748 мм0.9 м/с2 %
    05:00Ясно и безоблачно+13°C99 %748 мм1.3 м/с2 %
    08:00Ясно и безоблачно+18°C83 %748 мм1.2 м/с3 %
    11:00Ясно и безоблачно+23°C51 %748 мм2.8 м/с3 %
    14:00Ясно и безоблачно+25°C44 %747 мм2.5 м/с6 %
    17:00Ясно и безоблачно+26°C40 %746 мм2.4 м/с5 %
    20:00Ясно и безоблачно+23°C60 %746 мм3.0 м/с2 %
    23:00Ясно и безоблачно+17°C81 %746 мм1.9 м/с2 %
Мы используем cookies
Соглашаюсь